Time;durP1;ratioP1;P1;durP2;ratioP2;P2;SDS_P1;SDS_P2;PMS_P1;PMS_P2;Temp;Humidity;BMP_temperature;BMP_pressure;BME280_temperature;BME280_humidity;BME280_pressure;Samples;Min_cycle;Max_cycle;Signal;HPM_P1;HPM_P2
2021/12/03 00:00:21;;;;;;;0.80;0.73;;;1.50;99.90;;;;;;5032801;28;20707;-72
2021/12/03 00:02:46;;;;;;;1.10;1.10;;;1.50;99.90;;;;;;5032881;28;20559;-73
2021/12/03 00:05:12;;;;;;;0.70;0.60;;;1.40;99.90;;;;;;5032431;28;20417;-73
2021/12/03 00:07:40;;;;;;;0.63;0.40;;;1.50;99.90;;;;;;5032549;28;20195;-73
2021/12/03 00:10:07;;;;;;;3.00;2.80;;;1.50;99.90;;;;;;5032659;28;20402;-73
2021/12/03 00:12:33;;;;;;;0.80;0.70;;;1.50;99.90;;;;;;5032597;28;20981;-73
2021/12/03 00:14:59;;;;;;;5.03;1.67;;;1.50;99.90;;;;;;5032239;28;20407;-73
2021/12/03 00:17:24;;;;;;;0.70;0.50;;;1.40;99.90;;;;;;5032585;28;20528;-72
2021/12/03 00:19:50;;;;;;;0.90;0.67;;;1.50;99.90;;;;;;5064372;28;20171;-73
2021/12/03 00:22:15;;;;;;;0.70;0.50;;;1.50;99.90;;;;;;5032150;28;20195;-73
2021/12/03 00:24:41;;;;;;;0.70;0.50;;;1.40;99.90;;;;;;5032364;28;20535;-73
2021/12/03 00:27:07;;;;;;;2.60;2.50;;;1.40;99.90;;;;;;5032062;28;20199;-73
2021/12/03 00:29:33;;;;;;;1.90;1.80;;;1.50;99.90;;;;;;5031001;28;20532;-73
2021/12/03 00:31:58;;;;;;;2.40;1.80;;;1.40;99.90;;;;;;5032249;28;20422;-73
2021/12/03 00:34:26;;;;;;;0.70;0.50;;;1.40;99.90;;;;;;5032116;28;20261;-72
2021/12/03 00:36:53;;;;;;;0.70;0.50;;;1.40;99.90;;;;;;5047252;28;20193;-73
2021/12/03 00:39:19;;;;;;;2.70;2.50;;;1.40;99.90;;;;;;5032097;28;20411;-73
2021/12/03 00:41:47;;;;;;;2.17;2.07;;;1.40;99.90;;;;;;5032077;28;20429;-72
2021/12/03 00:44:13;;;;;;;1.27;1.17;;;1.40;99.90;;;;;;5030858;28;20254;-72
2021/12/03 00:46:39;;;;;;;0.70;0.50;;;1.40;99.90;;;;;;5031744;28;20596;-73
2021/12/03 00:49:04;;;;;;;1.23;1.13;;;1.50;99.90;;;;;;5064000;28;20175;-73
2021/12/03 00:51:30;;;;;;;1.10;0.80;;;1.50;99.90;;;;;;5031923;28;20183;-73
2021/12/03 00:53:56;;;;;;;0.70;0.47;;;1.50;99.90;;;;;;5031819;28;20167;-73
2021/12/03 00:56:21;;;;;;;0.70;0.40;;;1.50;99.90;;;;;;5031535;28;20241;-73
2021/12/03 00:58:47;;;;;;;1.13;1.13;;;1.60;99.90;;;;;;5032026;28;20176;-72
2021/12/03 01:01:14;;;;;;;2.13;0.93;;;1.50;99.90;;;;;;5031849;28;20838;-73
2021/12/03 01:03:40;;;;;;;0.70;0.40;;;1.50;99.90;;;;;;5031872;28;20599;-73
2021/12/03 01:06:06;;;;;;;0.70;0.40;;;1.60;99.90;;;;;;5031476;28;20479;-72
2021/12/03 01:08:31;;;;;;;0.70;0.50;;;1.60;99.90;;;;;;5031897;28;20445;-73
2021/12/03 01:10:57;;;;;;;0.70;0.50;;;1.60;99.90;;;;;;5031645;28;20553;-73
2021/12/03 01:13:23;;;;;;;1.43;1.10;;;1.60;99.90;;;;;;5031768;28;20265;-73
2021/12/03 01:15:49;;;;;;;0.70;0.50;;;1.60;99.90;;;;;;5033487;28;20438;-73
2021/12/03 01:18:15;;;;;;;2.53;2.43;;;1.60;99.90;;;;;;5050203;28;20185;-73
2021/12/03 01:20:42;;;;;;;1.53;0.97;;;1.50;99.90;;;;;;5035217;28;20439;-74
2021/12/03 01:23:11;;;;;;;0.70;0.60;;;1.60;99.90;;;;;;5069168;28;20172;-74
2021/12/03 01:25:37;;;;;;;0.70;0.40;;;1.60;99.90;;;;;;5036817;28;20438;-74
2021/12/03 01:28:04;;;;;;;1.37;0.87;;;1.60;99.90;;;;;;5036938;28;20790;-73
2021/12/03 01:30:30;;;;;;;0.83;0.83;;;1.50;99.90;;;;;;5032747;28;21055;-73
2021/12/03 01:32:58;;;;;;;0.60;0.40;;;1.50;99.90;;;;;;5033821;28;20413;-73
2021/12/03 01:35:25;;;;;;;1.23;0.70;;;1.50;99.90;;;;;;5033318;28;20436;-73
2021/12/03 01:37:51;;;;;;;1.07;0.73;;;1.50;99.90;;;;;;5033485;28;20453;-73
2021/12/03 01:40:20;;;;;;;0.63;0.43;;;1.50;99.90;;;;;;5032618;28;20801;-73
2021/12/03 01:42:46;;;;;;;1.93;1.47;;;1.50;99.90;;;;;;5032641;28;20480;-73
2021/12/03 01:45:25;;;;;;;0.70;0.50;;;1.50;99.90;;;;;;5047277;28;20422;-73
2021/12/03 01:47:51;;;;;;;0.60;0.40;;;1.50;99.90;;;;;;5032193;28;20483;-73
2021/12/03 01:50:17;;;;;;;0.70;0.40;;;1.50;99.90;;;;;;5032108;28;20418;-73
2021/12/03 01:52:43;;;;;;;0.70;0.50;;;1.60;99.90;;;;;;5035054;28;20429;-73
2021/12/03 01:55:11;;;;;;;0.70;0.70;;;1.50;99.90;;;;;;5036267;28;20401;-74
2021/12/03 01:57:37;;;;;;;0.87;0.83;;;1.50;99.90;;;;;;5036098;28;20175;-73
2021/12/03 02:00:14;;;;;;;3.10;2.80;;;1.60;99.90;;;;;;5047608;28;20413;-73
2021/12/03 02:02:39;;;;;;;0.60;0.40;;;1.60;99.90;;;;;;5064837;28;20413;-73
2021/12/03 02:05:06;;;;;;;0.67;0.47;;;1.60;99.90;;;;;;5032537;28;20957;-73
2021/12/03 02:07:32;;;;;;;0.70;0.50;;;1.60;99.90;;;;;;5036378;28;20253;-73
2021/12/03 02:09:57;;;;;;;1.63;1.53;;;1.70;99.90;;;;;;5039843;28;20922;-74
2021/12/03 02:12:23;;;;;;;0.80;0.70;;;1.70;99.90;;;;;;5072481;28;20175;-74
2021/12/03 02:14:48;;;;;;;0.60;0.43;;;1.60;99.90;;;;;;5039950;28;20170;-74
2021/12/03 02:17:14;;;;;;;0.70;0.60;;;1.70;99.90;;;;;;5038100;28;20178;-74
2021/12/03 02:19:40;;;;;;;0.93;0.93;;;1.70;99.90;;;;;;5040090;28;20167;-74
2021/12/03 02:22:06;;;;;;;0.70;0.40;;;1.70;99.90;;;;;;5039808;28;20187;-74
2021/12/03 02:24:31;;;;;;;1.60;1.37;;;1.70;99.90;;;;;;5039820;28;20410;-73
2021/12/03 02:26:57;;;;;;;0.63;0.50;;;1.70;99.90;;;;;;5039656;28;20189;-73
2021/12/03 02:29:23;;;;;;;0.70;0.40;;;1.70;99.90;;;;;;5039470;28;20227;-74
2021/12/03 02:31:48;;;;;;;2.60;2.40;;;1.80;99.90;;;;;;5035431;28;20182;-73
2021/12/03 02:34:14;;;;;;;0.60;0.50;;;1.90;99.90;;;;;;5050506;28;20174;-73
2021/12/03 02:36:40;;;;;;;0.70;0.50;;;1.90;99.90;;;;;;5034913;28;20177;-73
2021/12/03 02:39:05;;;;;;;1.10;0.97;;;2.00;99.90;;;;;;5037656;28;20172;-73
2021/12/03 02:41:31;;;;;;;0.60;0.40;;;2.00;99.90;;;;;;5039040;28;20282;-74
2021/12/03 02:43:57;;;;;;;0.90;0.90;;;2.00;99.90;;;;;;5038987;28;20197;-74
2021/12/03 02:46:22;;;;;;;2.40;0.83;;;2.10;99.90;;;;;;5037970;28;20195;-74
2021/12/03 02:48:48;;;;;;;0.70;0.40;;;2.10;99.90;;;;;;5037978;28;20668;-74
2021/12/03 02:51:13;;;;;;;1.10;1.00;;;2.10;99.90;;;;;;5036833;28;20700;-73
2021/12/03 02:53:39;;;;;;;1.03;0.70;;;2.20;99.90;;;;;;5034028;28;20228;-73
2021/12/03 02:56:07;;;;;;;0.60;0.40;;;2.20;99.90;;;;;;5033682;28;20577;-73
2021/12/03 02:58:34;;;;;;;0.70;0.60;;;2.20;99.90;;;;;;5034161;28;20226;-73
2021/12/03 03:01:01;;;;;;;0.60;0.50;;;2.20;99.90;;;;;;5033887;28;20429;-72
2021/12/03 03:03:26;;;;;;;1.10;1.10;;;2.20;99.90;;;;;;5033843;28;20437;-72
2021/12/03 03:05:58;;;;;;;0.60;0.50;;;2.20;99.90;;;;;;5033512;28;20836;-73
2021/12/03 03:08:25;;;;;;;0.63;0.40;;;2.20;99.90;;;;;;5033744;28;20641;-73
2021/12/03 03:10:51;;;;;;;0.70;0.50;;;2.20;99.90;;;;;;5033681;28;20430;-73
2021/12/03 03:13:16;;;;;;;0.83;0.83;;;2.20;99.90;;;;;;5033943;28;20467;-73
2021/12/03 03:15:42;;;;;;;0.67;0.50;;;2.20;99.90;;;;;;5038053;28;20414;-74
2021/12/03 03:18:15;;;;;;;2.63;1.43;;;2.30;99.90;;;;;;5037430;28;20265;-73
2021/12/03 03:20:42;;;;;;;0.70;0.50;;;2.40;99.90;;;;;;5034946;28;20429;-73
2021/12/03 03:23:08;;;;;;;0.77;0.77;;;2.40;99.90;;;;;;5036159;28;20497;-73
2021/12/03 03:25:34;;;;;;;0.70;0.50;;;2.40;99.90;;;;;;5035247;28;20422;-73
2021/12/03 03:28:00;;;;;;;1.20;1.10;;;2.50;99.90;;;;;;5034252;28;20464;-73
2021/12/03 03:30:26;;;;;;;0.70;0.50;;;2.60;99.90;;;;;;5035530;28;20668;-73
2021/12/03 03:32:52;;;;;;;0.70;0.40;;;2.60;99.90;;;;;;5035025;28;20416;-73
2021/12/03 03:35:18;;;;;;;0.70;0.40;;;2.60;99.90;;;;;;5033765;28;20545;-73
2021/12/03 03:37:43;;;;;;;0.70;0.50;;;2.70;99.90;;;;;;5034366;28;20409;-74
2021/12/03 03:40:10;;;;;;;0.80;0.80;;;2.70;99.90;;;;;;5037087;28;20175;-74
2021/12/03 03:42:36;;;;;;;0.70;0.50;;;2.70;99.90;;;;;;5037262;28;20545;-74
2021/12/03 03:45:09;;;;;;;0.70;0.43;;;2.70;99.90;;;;;;5033964;28;20509;-73
2021/12/03 03:47:35;;;;;;;1.37;1.27;;;2.70;99.90;;;;;;5033730;28;21007;-73
2021/12/03 03:50:02;;;;;;;0.70;0.50;;;2.60;99.90;;;;;;5033500;28;20485;-73
2021/12/03 03:52:28;;;;;;;0.90;0.70;;;2.70;99.90;;;;;;5033621;28;20500;-73
2021/12/03 03:54:54;;;;;;;0.70;0.50;;;2.60;99.90;;;;;;5033384;28;20405;-72
2021/12/03 03:57:20;;;;;;;0.70;0.40;;;2.60;99.90;;;;;;5033342;28;20441;-73
2021/12/03 03:59:45;;;;;;;0.70;0.50;;;2.50;99.90;;;;;;5033877;28;20203;-73
2021/12/03 04:02:11;;;;;;;0.73;0.50;;;2.50;99.90;;;;;;5033594;28;20229;-73
2021/12/03 04:04:37;;;;;;;0.70;0.47;;;2.50;99.90;;;;;;5033642;28;20262;-73
2021/12/03 04:07:03;;;;;;;0.70;0.47;;;2.60;99.90;;;;;;5033998;28;20194;-73
2021/12/03 04:09:29;;;;;;;0.67;0.60;;;2.60;99.90;;;;;;5034490;28;20649;-73
2021/12/03 04:11:55;;;;;;;0.70;0.50;;;2.50;99.90;;;;;;5066105;28;20437;-73
2021/12/03 04:14:20;;;;;;;3.10;0.90;;;2.50;99.90;;;;;;5034203;28;20163;-73
2021/12/03 04:16:46;;;;;;;0.70;0.60;;;2.60;99.90;;;;;;5033604;28;20579;-73
2021/12/03 04:19:12;;;;;;;1.53;1.43;;;2.60;99.90;;;;;;5034264;28;20532;-73
2021/12/03 04:21:38;;;;;;;0.80;0.80;;;2.70;99.90;;;;;;5034025;28;20795;-73
2021/12/03 04:24:04;;;;;;;1.10;0.67;;;2.80;99.90;;;;;;5034112;28;20406;-73
2021/12/03 04:26:29;;;;;;;0.70;0.50;;;2.90;99.90;;;;;;5033892;28;20241;-73
2021/12/03 04:28:56;;;;;;;2.17;0.77;;;2.90;99.90;;;;;;5033486;28;20406;-73
2021/12/03 04:31:21;;;;;;;0.70;0.60;;;2.90;99.90;;;;;;5033382;28;20659;-73
2021/12/03 04:33:47;;;;;;;0.70;0.50;;;2.90;99.90;;;;;;5033041;28;20406;-73
2021/12/03 04:36:13;;;;;;;1.00;0.93;;;3.00;99.90;;;;;;5064826;28;20167;-73
2021/12/03 04:38:38;;;;;;;0.67;0.50;;;3.00;99.90;;;;;;5048109;28;20199;-73
2021/12/03 04:41:04;;;;;;;0.90;0.90;;;3.10;99.90;;;;;;5032946;28;20721;-73
2021/12/03 04:43:31;;;;;;;1.57;1.47;;;3.10;99.90;;;;;;5032536;28;20178;-73
2021/12/03 04:45:56;;;;;;;0.70;0.40;;;3.10;99.90;;;;;;5032430;28;20214;-73
2021/12/03 04:48:22;;;;;;;0.70;0.60;;;3.20;99.90;;;;;;5032738;28;20410;-73
2021/12/03 04:50:48;;;;;;;0.70;0.40;;;3.20;99.90;;;;;;5032677;28;20237;-73
2021/12/03 04:53:15;;;;;;;2.03;0.90;;;3.20;99.90;;;;;;5032812;28;20166;-73
2021/12/03 04:55:41;;;;;;;0.70;0.40;;;3.20;99.90;;;;;;5047675;28;20843;-73
2021/12/03 04:58:07;;;;;;;0.70;0.50;;;3.20;99.90;;;;;;5032719;28;20445;-73
2021/12/03 05:00:38;;;;;;;0.70;0.60;;;3.30;99.90;;;;;;5033039;28;20187;-73
2021/12/03 05:03:04;;;;;;;0.70;0.50;;;3.30;99.90;;;;;;5032918;28;20406;-73
2021/12/03 05:05:33;;;;;;;0.70;0.60;;;3.30;99.90;;;;;;5032710;28;20417;-73
2021/12/03 05:08:10;;;;;;;0.70;0.50;;;3.40;99.90;;;;;;5032666;28;20290;-73
2021/12/03 05:10:39;;;;;;;2.30;1.80;;;3.40;99.90;;;;;;5032615;28;20426;-73
2021/12/03 05:13:10;;;;;;;2.23;1.43;;;3.30;99.90;;;;;;5047519;28;20933;-73
2021/12/03 05:15:37;;;;;;;0.67;0.47;;;3.30;99.90;;;;;;5031476;28;20402;-73
2021/12/03 05:18:05;;;;;;;0.80;0.70;;;3.20;99.90;;;;;;5031809;28;20402;-73
2021/12/03 05:20:31;;;;;;;0.60;0.40;;;3.10;99.90;;;;;;5031752;28;20807;-72
2021/12/03 05:22:57;;;;;;;0.70;0.40;;;3.00;99.90;;;;;;5031758;28;20921;-72
2021/12/03 05:25:23;;;;;;;0.73;0.70;;;3.00;99.90;;;;;;5031479;28;20459;-73
2021/12/03 05:27:50;;;;;;;0.70;0.40;;;3.00;99.90;;;;;;5031728;28;20546;-73
2021/12/03 05:30:16;;;;;;;0.70;0.67;;;3.00;99.90;;;;;;5031418;28;20194;-73
2021/12/03 05:32:42;;;;;;;0.80;0.70;;;3.10;99.90;;;;;;5031710;28;20402;-73
2021/12/03 05:35:09;;;;;;;1.23;1.13;;;3.10;99.90;;;;;;5031317;28;20204;-73
2021/12/03 05:37:35;;;;;;;0.70;0.50;;;3.10;99.90;;;;;;5046978;28;20265;-73
2021/12/03 05:40:01;;;;;;;0.70;0.50;;;3.20;99.90;;;;;;5031428;28;20433;-73
2021/12/03 05:42:27;;;;;;;0.60;0.50;;;3.20;99.90;;;;;;5034052;28;20975;-72
2021/12/03 05:44:53;;;;;;;0.70;0.50;;;3.30;99.90;;;;;;5035080;28;20492;-72
2021/12/03 05:47:19;;;;;;;4.70;1.93;;;3.40;99.90;;;;;;5033984;28;20199;-73
2021/12/03 05:49:44;;;;;;;2.97;2.80;;;3.30;99.90;;;;;;5035354;28;20456;-73
2021/12/03 05:52:10;;;;;;;0.90;0.77;;;3.40;99.90;;;;;;5036952;28;20192;-74
2021/12/03 05:54:36;;;;;;;0.70;0.50;;;3.40;99.90;;;;;;5039426;28;20218;-74
2021/12/03 05:57:01;;;;;;;3.10;1.23;;;3.40;99.90;;;;;;5038863;28;20180;-74
2021/12/03 05:59:27;;;;;;;0.70;0.60;;;3.50;99.90;;;;;;5057148;28;20529;-74
2021/12/03 06:01:53;;;;;;;0.70;0.50;;;3.50;99.90;;;;;;5039165;28;20179;-73
2021/12/03 06:04:18;;;;;;;0.70;0.40;;;3.50;99.90;;;;;;5039488;28;20171;-74
2021/12/03 06:06:44;;;;;;;0.67;0.40;;;3.50;99.90;;;;;;5038627;28;20225;-73
2021/12/03 06:09:09;;;;;;;0.70;0.50;;;3.50;99.90;;;;;;5034957;28;20414;-73
2021/12/03 06:11:35;;;;;;;0.70;0.70;;;3.50;99.90;;;;;;5034809;28;20268;-73
2021/12/03 06:14:00;;;;;;;0.90;0.90;;;3.60;99.90;;;;;;5034812;28;20214;-73
2021/12/03 06:16:26;;;;;;;2.97;2.77;;;3.60;99.90;;;;;;5066970;28;20175;-73
2021/12/03 06:18:52;;;;;;;0.70;0.50;;;3.50;99.90;;;;;;5051836;28;20175;-73
2021/12/03 06:21:17;;;;;;;0.70;0.50;;;3.60;99.90;;;;;;5034246;28;20245;-73
2021/12/03 06:23:43;;;;;;;0.70;0.50;;;3.60;99.90;;;;;;5036416;28;20172;-74
2021/12/03 06:26:10;;;;;;;1.73;1.63;;;3.60;99.90;;;;;;5037254;28;20179;-73
2021/12/03 06:28:38;;;;;;;0.70;0.47;;;3.60;99.90;;;;;;5034558;28;20245;-73
2021/12/03 06:31:04;;;;;;;4.57;0.83;;;3.60;99.90;;;;;;5034448;28;20422;-73
2021/12/03 06:33:30;;;;;;;0.70;0.50;;;3.70;99.90;;;;;;5034631;28;20767;-73
2021/12/03 06:35:56;;;;;;;0.87;0.87;;;3.70;99.90;;;;;;5034297;28;20407;-73
2021/12/03 06:38:22;;;;;;;0.70;0.47;;;3.60;99.90;;;;;;5034380;28;20601;-72
2021/12/03 06:40:49;;;;;;;2.20;2.10;;;3.70;99.90;;;;;;5066213;28;20195;-73
2021/12/03 06:43:14;;;;;;;0.87;0.87;;;3.70;99.90;;;;;;5034298;28;20473;-72
2021/12/03 06:45:40;;;;;;;0.70;0.40;;;3.60;99.90;;;;;;5051326;28;20416;-73
2021/12/03 06:48:06;;;;;;;1.10;0.83;;;3.70;99.90;;;;;;5038495;28;20199;-73
2021/12/03 06:50:32;;;;;;;0.60;0.40;;;3.70;99.90;;;;;;5036729;28;20191;-73
2021/12/03 06:53:07;;;;;;;0.70;0.60;;;3.70;99.90;;;;;;5034542;28;20209;-72
2021/12/03 06:55:38;;;;;;;0.70;0.40;;;3.70;99.90;;;;;;5034495;28;20421;-73
2021/12/03 06:58:04;;;;;;;0.70;0.47;;;3.70;99.90;;;;;;5035121;28;20494;-72
2021/12/03 07:00:30;;;;;;;0.70;0.50;;;3.70;99.90;;;;;;5035141;28;20454;-72
2021/12/03 07:02:55;;;;;;;1.43;1.33;;;3.70;99.90;;;;;;5033940;28;20286;-72
2021/12/03 07:05:21;;;;;;;1.67;1.57;;;3.70;99.90;;;;;;5036009;28;20537;-73
2021/12/03 07:07:47;;;;;;;1.80;1.70;;;3.70;99.90;;;;;;5069766;28;20258;-73
2021/12/03 07:10:13;;;;;;;0.67;0.47;;;3.60;99.90;;;;;;5037599;28;20172;-73
2021/12/03 07:12:39;;;;;;;0.60;0.40;;;3.70;99.90;;;;;;5036246;28;20417;-73
2021/12/03 07:15:05;;;;;;;0.90;0.90;;;3.60;99.90;;;;;;5052552;28;20202;-72
2021/12/03 07:17:33;;;;;;;0.70;0.50;;;3.70;99.90;;;;;;5034542;28;20167;-72
2021/12/03 07:19:59;;;;;;;1.00;0.90;;;3.70;99.90;;;;;;5034749;28;20486;-73
2021/12/03 07:22:26;;;;;;;0.70;0.50;;;3.70;99.90;;;;;;5034334;28;20411;-73
2021/12/03 07:24:52;;;;;;;0.70;0.50;;;3.70;99.90;;;;;;5034329;28;20410;-73
2021/12/03 07:27:18;;;;;;;1.17;1.07;;;3.70;99.90;;;;;;5034456;28;20460;-73
2021/12/03 07:29:47;;;;;;;0.70;0.40;;;3.70;99.90;;;;;;5034697;28;20532;-73
2021/12/03 07:32:16;;;;;;;0.70;0.50;;;3.70;99.90;;;;;;5034563;28;20919;-73
2021/12/03 07:34:42;;;;;;;0.70;0.60;;;3.70;99.90;;;;;;5034229;28;20402;-73
2021/12/03 07:37:07;;;;;;;0.70;0.40;;;3.70;99.90;;;;;;5033345;28;20501;-72
2021/12/03 07:39:33;;;;;;;0.70;0.50;;;3.60;99.90;;;;;;5033195;28;20250;-73
2021/12/03 07:41:58;;;;;;;0.97;0.97;;;3.60;99.90;;;;;;5036466;28;20248;-74
2021/12/03 07:44:24;;;;;;;0.70;0.40;;;3.60;99.90;;;;;;5034473;28;20583;-73
2021/12/03 07:46:49;;;;;;;2.70;1.03;;;3.50;99.90;;;;;;5033948;28;20199;-73
2021/12/03 07:49:15;;;;;;;1.97;1.87;;;3.50;99.90;;;;;;5033992;28;20645;-72
2021/12/03 07:51:40;;;;;;;0.70;0.50;;;3.50;99.90;;;;;;5034120;28;20266;-73
2021/12/03 07:54:06;;;;;;;0.70;0.50;;;3.60;99.90;;;;;;5034625;28;20191;-74
2021/12/03 07:56:32;;;;;;;1.33;1.00;;;3.50;99.90;;;;;;5069961;28;20187;-74
2021/12/03 07:58:57;;;;;;;0.70;0.50;;;3.50;99.90;;;;;;5036066;28;20176;-74
2021/12/03 08:01:24;;;;;;;0.70;0.50;;;3.50;99.90;;;;;;5037060;28;20190;-74
2021/12/03 08:03:50;;;;;;;0.73;0.73;;;3.50;99.90;;;;;;5035671;28;20242;-73
2021/12/03 08:06:16;;;;;;;0.70;0.50;;;3.50;99.90;;;;;;5035750;28;20887;-73
2021/12/03 08:08:41;;;;;;;0.70;0.50;;;3.50;99.90;;;;;;5033975;28;20470;-73
2021/12/03 08:11:07;;;;;;;0.90;0.90;;;3.50;99.90;;;;;;5035268;28;20228;-74
2021/12/03 08:13:34;;;;;;;0.70;0.50;;;3.50;99.90;;;;;;5035513;28;20164;-73
2021/12/03 08:16:01;;;;;;;0.70;0.50;;;3.50;99.90;;;;;;5032650;28;20790;-73
2021/12/03 08:18:26;;;;;;;1.63;1.53;;;3.60;99.90;;;;;;5033639;28;20402;-73
2021/12/03 08:20:53;;;;;;;0.70;0.50;;;3.60;99.90;;;;;;5035299;28;20507;-73
2021/12/03 08:23:19;;;;;;;0.70;0.50;;;3.60;99.90;;;;;;5037620;28;20174;-74
2021/12/03 08:25:44;;;;;;;0.70;0.50;;;3.70;99.90;;;;;;5033021;28;20911;-73
2021/12/03 08:28:10;;;;;;;0.70;0.40;;;3.70;99.90;;;;;;5035722;28;20481;-74
2021/12/03 08:30:36;;;;;;;0.93;0.83;;;3.80;99.90;;;;;;5068025;28;20438;-73
2021/12/03 08:33:02;;;;;;;2.07;0.97;;;3.80;99.90;;;;;;5033777;28;20172;-73
2021/12/03 08:35:27;;;;;;;3.17;1.23;;;3.90;99.90;;;;;;5034843;28;20321;-74
2021/12/03 08:37:53;;;;;;;1.60;1.50;;;3.90;99.90;;;;;;5069304;28;20174;-73
2021/12/03 08:40:20;;;;;;;0.70;0.50;;;3.90;99.90;;;;;;5033511;28;20253;-73
2021/12/03 08:42:46;;;;;;;0.70;0.40;;;3.90;99.90;;;;;;5050431;28;20229;-73
2021/12/03 08:45:13;;;;;;;0.70;0.50;;;4.00;99.90;;;;;;5068884;28;20414;-73
2021/12/03 08:47:39;;;;;;;0.70;0.50;;;3.90;99.90;;;;;;5032146;28;20782;-73
2021/12/03 08:50:14;;;;;;;0.70;0.50;;;4.00;99.90;;;;;;5032849;28;20485;-72
2021/12/03 08:55:14;;;;;;;0.70;0.50;;;4.00;99.90;;;;;;5032608;28;20405;-73
2021/12/03 08:57:40;;;;;;;0.70;0.50;;;4.10;99.90;;;;;;5032930;28;20713;-73
2021/12/03 09:00:19;;;;;;;0.70;0.43;;;4.20;99.90;;;;;;5064760;28;20638;-73
2021/12/03 09:02:45;;;;;;;0.70;0.50;;;4.10;99.90;;;;;;5032662;28;20411;-73
2021/12/03 09:05:11;;;;;;;0.70;0.60;;;4.10;99.90;;;;;;5031795;28;20501;-72
2021/12/03 09:07:37;;;;;;;0.70;0.50;;;4.10;99.90;;;;;;5031862;28;20202;-73
2021/12/03 09:10:10;;;;;;;0.70;0.50;;;4.00;99.90;;;;;;5031581;28;20410;-72
2021/12/03 09:12:36;;;;;;;2.30;2.20;;;4.00;99.90;;;;;;5035770;28;20160;-73
2021/12/03 09:15:05;;;;;;;0.70;0.47;;;4.10;99.90;;;;;;5038336;28;20409;-74
2021/12/03 09:18:00;;;;;;;0.90;0.70;;;4.20;99.90;;;;;;5041092;28;20667;-74
2021/12/03 09:20:40;;;;;;;0.70;0.50;;;4.30;99.90;;;;;;5037201;28;20478;-73
2021/12/03 09:23:24;;;;;;;0.70;0.50;;;4.30;99.90;;;;;;5035996;28;20452;-72
2021/12/03 09:26:03;;;;;;;0.70;0.50;;;4.20;99.90;;;;;;5038089;28;20410;-73
2021/12/03 09:28:28;;;;;;;0.70;0.50;;;4.30;99.90;;;;;;5038689;28;20410;-72
2021/12/03 09:30:54;;;;;;;0.70;0.50;;;4.40;99.90;;;;;;5036121;28;20422;-73
2021/12/03 09:33:23;;;;;;;0.70;0.50;;;4.40;99.90;;;;;;5037947;28;20171;-73
2021/12/03 09:35:53;;;;;;;1.10;1.00;;;4.30;99.90;;;;;;5036337;28;20543;-73
2021/12/03 09:38:19;;;;;;;0.70;0.50;;;4.40;99.90;;;;;;5035085;28;20472;-72
2021/12/03 09:40:45;;;;;;;0.70;0.50;;;4.30;99.90;;;;;;5036206;28;20944;-73
2021/12/03 09:43:11;;;;;;;0.70;0.50;;;4.40;99.90;;;;;;5036836;28;20680;-73
2021/12/03 09:45:38;;;;;;;1.13;0.77;;;4.30;99.90;;;;;;5038891;28;20441;-74
2021/12/03 09:48:16;;;;;;;0.70;0.50;;;4.30;99.90;;;;;;5040132;28;20216;-73
2021/12/03 09:50:42;;;;;;;0.70;0.50;;;4.30;99.90;;;;;;5072408;28;20437;-72
2021/12/03 09:53:26;;;;;;;0.70;0.50;;;4.20;99.90;;;;;;5072326;28;20418;-72
2021/12/03 09:55:51;;;;;;;0.70;0.40;;;4.30;99.90;;;;;;5039375;28;20440;-72
2021/12/03 09:58:45;;;;;;;0.70;0.50;;;4.20;99.90;;;;;;5038599;28;20503;-73
2021/12/03 10:01:22;;;;;;;0.70;0.40;;;4.20;99.90;;;;;;5039953;28;20184;-74
2021/12/03 10:04:13;;;;;;;5.07;1.27;;;4.30;99.90;;;;;;5039695;28;20406;-73
2021/12/03 10:12:40;;;;;;;0.70;0.50;;;4.30;99.90;;;;;;5038675;28;20429;-73
2021/12/03 10:15:09;;;;;;;0.70;0.50;;;4.30;99.90;;;;;;5037200;28;20828;-73
2021/12/03 10:34:13;;;;;;;1.17;1.17;;;4.90;99.90;;;;;;5034645;28;20375;-71
2021/12/03 10:39:34;;;;;;;0.70;0.50;;;5.10;99.90;;;;;;5034796;28;20478;-71
2021/12/03 10:42:21;;;;;;;2.50;1.87;;;5.10;99.90;;;;;;5034321;28;20903;-71
2021/12/03 10:47:44;;;;;;;1.10;0.80;;;5.10;99.90;;;;;;5035114;28;20465;-71
2021/12/03 10:50:26;;;;;;;0.70;0.70;;;5.10;99.90;;;;;;5035776;28;20426;-71
2021/12/03 12:13:58;;;;;;;1.03;0.80;;;5.40;99.90;;;;;;5037333;28;20394;-72
2021/12/03 12:19:17;;;;;;;0.70;0.43;;;5.40;99.90;;;;;;5034781;28;20413;-71
2021/12/03 12:25:00;;;;;;;0.70;0.50;;;5.40;99.90;;;;;;5032843;28;20521;-71
2021/12/03 12:28:24;;;;;;;0.70;0.50;;;5.30;99.90;;;;;;5032205;28;20489;-71
2021/12/03 12:32:18;;;;;;;0.70;0.50;;;5.40;99.90;;;;;;5032263;28;20426;-72
2021/12/03 12:34:38;;;;;;;0.70;0.50;;;5.40;99.90;;;;;;5032211;28;20413;-72
2021/12/03 12:37:21;;;;;;;0.70;0.50;;;5.40;99.90;;;;;;5035068;28;20470;-71
2021/12/03 12:42:48;;;;;;;0.70;0.50;;;5.40;99.90;;;;;;5032574;28;20872;-71
2021/12/03 12:45:47;;;;;;;0.70;0.40;;;5.40;99.90;;;;;;5032036;28;20763;-71
2021/12/03 13:18:28;;;;;;;0.70;0.50;;;5.40;99.90;;;;;;5031960;28;20424;-72
2021/12/03 13:32:22;;;;;;;0.80;0.70;;;5.60;99.90;;;;;;5030385;28;20418;-71
2021/12/03 13:38:36;;;;;;;0.70;0.50;;;5.60;99.90;;;;;;5031899;28;20949;-71
2021/12/03 13:45:00;;;;;;;0.70;0.50;;;5.40;99.90;;;;;;5031870;28;20401;-72
2021/12/03 14:55:50;;;;;;;0.70;0.50;;;5.20;99.90;;;;;;5034051;28;20430;-71
2021/12/03 14:58:20;;;;;;;0.70;0.50;;;5.10;99.90;;;;;;5034197;28;20402;-71
2021/12/03 15:00:54;;;;;;;0.70;0.50;;;5.10;99.90;;;;;;5034110;28;20766;-71
2021/12/03 15:06:17;;;;;;;1.10;1.00;;;5.10;99.90;;;;;;5034176;28;20398;-72
2021/12/03 15:08:56;;;;;;;0.70;0.50;;;5.10;99.90;;;;;;5034293;28;20974;-72
2021/12/03 15:21:47;;;;;;;0.70;0.50;;;4.60;99.90;;;;;;5033859;28;20515;-72
2021/12/03 15:32:27;;;;;;;0.70;0.50;;;4.40;99.90;;;;;;5033762;28;20603;-72
2021/12/03 15:35:17;;;;;;;0.70;0.50;;;4.30;99.90;;;;;;5033881;28;20414;-71
2021/12/03 16:07:59;;;;;;;0.73;0.53;;;4.40;99.90;;;;;;5032947;28;20461;-71
2021/12/03 16:53:21;;;;;;;0.90;0.60;;;4.80;99.90;;;;;;5032216;28;20791;-72
2021/12/03 16:55:58;;;;;;;0.70;0.47;;;4.70;99.90;;;;;;5031648;28;20463;-72
2021/12/03 16:58:23;;;;;;;0.70;0.40;;;4.80;99.90;;;;;;5031744;28;20426;-72
2021/12/03 17:01:01;;;;;;;0.70;0.50;;;4.80;99.90;;;;;;5031474;28;20523;-72
2021/12/03 17:03:34;;;;;;;0.70;0.50;;;4.70;99.90;;;;;;5032205;28;20574;-73
2021/12/03 17:07:30;;;;;;;0.87;0.63;;;4.70;99.90;;;;;;5047071;28;20503;-70
2021/12/03 17:14:34;;;;;;;0.70;0.40;;;4.50;99.90;;;;;;5032020;28;20425;-72
2021/12/03 17:56:48;;;;;;;0.70;0.50;;;4.20;99.90;;;;;;5035052;28;20429;-72
2021/12/03 18:04:39;;;;;;;0.70;0.70;;;4.30;99.90;;;;;;5035143;28;20817;-72
2021/12/03 18:09:53;;;;;;;0.70;0.50;;;4.30;99.90;;;;;;5035147;28;20390;-71
2021/12/03 18:18:06;;;;;;;0.70;0.50;;;4.40;99.90;;;;;;5035082;28;20400;-71
2021/12/03 18:45:30;;;;;;;0.80;0.80;;;4.40;99.90;;;;;;5034374;28;20433;-71
2021/12/03 18:58:04;;;;;;;0.70;0.40;;;4.40;99.90;;;;;;5034091;28;20541;-72
2021/12/03 19:00:35;;;;;;;0.70;0.50;;;4.50;99.90;;;;;;5034153;28;20441;-71
2021/12/03 19:03:07;;;;;;;1.33;1.07;;;4.50;99.90;;;;;;5033991;28;20391;-72
2021/12/03 19:08:14;;;;;;;0.70;0.40;;;4.50;99.90;;;;;;5033973;28;20457;-71
2021/12/03 19:10:48;;;;;;;0.70;0.50;;;4.40;99.90;;;;;;5033699;28;20418;-71
2021/12/03 19:13:21;;;;;;;0.70;0.50;;;4.50;99.90;;;;;;5033749;28;20475;-71
2021/12/03 19:15:49;;;;;;;0.80;0.80;;;4.50;99.90;;;;;;5033566;28;20411;-71
2021/12/03 19:18:15;;;;;;;0.70;0.50;;;4.50;99.90;;;;;;5033766;28;20460;-71
2021/12/03 19:20:42;;;;;;;0.70;0.50;;;4.50;99.90;;;;;;5033576;28;20842;-71
2021/12/03 19:23:08;;;;;;;0.70;0.50;;;4.60;99.90;;;;;;5033613;28;20767;-71
2021/12/03 19:25:35;;;;;;;1.40;1.27;;;4.50;99.90;;;;;;5033201;28;20410;-70
2021/12/03 19:28:01;;;;;;;0.80;0.63;;;4.50;99.90;;;;;;5033503;28;20191;-71
2021/12/03 19:30:26;;;;;;;0.70;0.50;;;4.60;99.90;;;;;;5033487;28;20851;-71
2021/12/03 19:32:53;;;;;;;0.70;0.47;;;4.40;99.90;;;;;;5033586;28;20182;-72
2021/12/03 19:35:19;;;;;;;0.70;0.40;;;4.50;99.90;;;;;;5033141;28;20160;-71
2021/12/03 19:37:48;;;;;;;0.70;0.50;;;4.50;99.90;;;;;;5033393;28;20937;-71
2021/12/03 19:40:14;;;;;;;0.70;0.40;;;4.50;99.90;;;;;;5033095;28;20403;-72
2021/12/03 19:42:46;;;;;;;0.70;0.40;;;4.60;99.90;;;;;;5033266;28;20490;-72
2021/12/03 19:45:17;;;;;;;0.70;0.43;;;4.60;99.90;;;;;;5033091;28;20168;-72
2021/12/03 19:52:52;;;;;;;0.70;0.50;;;4.70;99.90;;;;;;5033070;28;20945;-71
2021/12/03 19:55:18;;;;;;;0.70;0.47;;;4.70;99.90;;;;;;5032574;28;20266;-71
2021/12/03 19:57:44;;;;;;;0.70;0.50;;;4.70;99.90;;;;;;5032910;28;20904;-71
2021/12/03 20:00:10;;;;;;;0.70;0.40;;;4.80;99.90;;;;;;5031910;28;20171;-71
2021/12/03 20:02:36;;;;;;;0.70;0.50;;;4.80;99.90;;;;;;5032883;28;20511;-72
2021/12/03 20:05:03;;;;;;;0.70;0.40;;;4.80;99.90;;;;;;5032583;28;20460;-72
2021/12/03 20:07:29;;;;;;;0.70;0.50;;;4.80;99.90;;;;;;5033567;28;20552;-72
2021/12/03 20:10:08;;;;;;;0.70;0.40;;;4.80;99.90;;;;;;5035742;28;20406;-71
2021/12/03 20:12:34;;;;;;;0.70;0.60;;;4.90;99.90;;;;;;5034738;28;20183;-71
2021/12/03 20:15:02;;;;;;;0.70;0.50;;;4.90;99.90;;;;;;5064771;28;20467;-73
2021/12/03 20:17:34;;;;;;;0.70;0.50;;;4.90;99.90;;;;;;5032247;28;20484;-71